Time;durP1;ratioP1;P1;durP2;ratioP2;P2;SDS_P1;SDS_P2;PMS_P1;PMS_P2;Temp;Humidity;BMP_temperature;BMP_pressure;BME280_temperature;BME280_humidity;BME280_pressure;Samples;Min_cycle;Max_cycle;Signal;HPM_P1;HPM_P2
2021/11/22 05:00:59;;;;;;;77.87;18.40;;;4.90;99.70;;;;;;5092340;28;20184;-66
2021/11/22 05:03:26;;;;;;;78.80;16.20;;;4.80;99.70;;;;;;5091617;28;20211;-60
2021/11/22 05:05:52;;;;;;;83.70;17.93;;;4.80;99.70;;;;;;5092443;28;20442;-61
2021/11/22 05:08:19;;;;;;;81.80;16.57;;;4.80;99.70;;;;;;5092961;28;20438;-63
2021/11/22 05:10:46;;;;;;;78.17;16.93;;;4.90;99.70;;;;;;5092638;28;20453;-63
2021/11/22 05:13:15;;;;;;;78.50;16.70;;;4.90;99.70;;;;;;5092249;28;20525;-63
2021/11/22 05:15:42;;;;;;;79.30;17.50;;;4.90;99.70;;;;;;5092081;28;20445;-57
2021/11/22 05:18:12;;;;;;;79.47;16.17;;;4.80;99.70;;;;;;5092994;28;20442;-60
2021/11/22 05:20:40;;;;;;;76.10;16.40;;;4.80;99.70;;;;;;5092262;28;20449;-60
2021/11/22 05:23:08;;;;;;;81.77;16.77;;;4.90;99.70;;;;;;5092494;28;20458;-61
2021/11/22 05:25:36;;;;;;;80.50;17.47;;;5.10;99.70;;;;;;5092211;28;20979;-62
2021/11/22 05:28:04;;;;;;;82.53;17.53;;;5.00;99.70;;;;;;5092592;28;20449;-62
2021/11/22 05:30:31;;;;;;;76.47;17.87;;;5.20;99.70;;;;;;5091890;28;20816;-63
2021/11/22 05:33:00;;;;;;;80.80;18.80;;;5.00;99.70;;;;;;5088973;28;20485;-65
2021/11/22 05:35:29;;;;;;;78.93;16.73;;;4.90;99.70;;;;;;5091162;28;20464;-63
2021/11/22 05:37:56;;;;;;;85.70;17.87;;;4.90;99.70;;;;;;5086530;28;20442;-64
2021/11/22 05:40:23;;;;;;;79.63;19.77;;;4.80;99.70;;;;;;5087477;28;20457;-61
2021/11/22 05:42:50;;;;;;;76.87;19.63;;;4.90;99.70;;;;;;5087439;28;20466;-62
2021/11/22 05:45:18;;;;;;;81.00;18.30;;;4.90;99.70;;;;;;5085975;28;20517;-58
2021/11/22 05:47:45;;;;;;;75.07;17.00;;;4.90;99.70;;;;;;5082584;28;20484;-60
2021/11/22 05:50:12;;;;;;;83.47;19.13;;;4.80;99.70;;;;;;5089848;28;20462;-61
2021/11/22 05:52:43;;;;;;;78.53;18.83;;;4.70;99.70;;;;;;5080308;28;20477;-63
2021/11/22 05:55:13;;;;;;;81.87;20.67;;;4.70;99.70;;;;;;5088795;28;20468;-60
2021/11/22 05:57:39;;;;;;;78.60;19.87;;;4.80;99.70;;;;;;5081555;28;20458;-63
2021/11/22 06:00:08;;;;;;;86.90;19.20;;;4.80;99.70;;;;;;5085866;28;20834;-61
2021/11/22 06:02:35;;;;;;;79.53;18.70;;;4.80;99.70;;;;;;5082506;28;20535;-59
2021/11/22 06:05:02;;;;;;;84.33;20.50;;;4.90;99.70;;;;;;5087566;28;20441;-65
2021/11/22 06:07:29;;;;;;;83.67;20.33;;;4.90;99.70;;;;;;5084900;28;20938;-64
2021/11/22 06:09:58;;;;;;;76.40;18.40;;;4.90;99.70;;;;;;5078657;28;20478;-62
2021/11/22 06:12:25;;;;;;;77.70;17.97;;;4.90;99.70;;;;;;5081125;28;20484;-63
2021/11/22 06:14:54;;;;;;;76.00;20.17;;;5.00;99.70;;;;;;5079551;28;20922;-60
2021/11/22 06:17:21;;;;;;;84.40;19.73;;;5.10;99.70;;;;;;5080553;28;20538;-61
2021/11/22 06:19:48;;;;;;;80.83;19.20;;;5.00;99.70;;;;;;5087048;28;20446;-64
2021/11/22 06:22:15;;;;;;;80.13;20.03;;;5.00;99.70;;;;;;5082620;28;20502;-62
2021/11/22 06:24:41;;;;;;;80.27;17.27;;;5.00;99.70;;;;;;5080473;28;20447;-61
2021/11/22 06:27:10;;;;;;;76.50;17.00;;;5.10;99.70;;;;;;5084438;28;20465;-60
2021/11/22 06:29:38;;;;;;;75.10;16.20;;;5.10;99.70;;;;;;5086362;28;20443;-60
2021/11/22 06:32:10;;;;;;;78.50;16.67;;;5.00;99.70;;;;;;5080416;28;20484;-65
2021/11/22 06:34:37;;;;;;;80.73;17.80;;;5.10;99.70;;;;;;5088201;28;20533;-60
2021/11/22 06:37:04;;;;;;;86.90;18.80;;;5.10;99.70;;;;;;5083563;28;20458;-63
2021/11/22 06:39:31;;;;;;;78.40;17.23;;;5.00;99.70;;;;;;5089230;28;20458;-61
2021/11/22 06:41:57;;;;;;;78.23;19.97;;;5.00;99.70;;;;;;5087827;28;20486;-61
2021/11/22 06:44:25;;;;;;;79.33;17.83;;;5.00;99.70;;;;;;5088921;28;20448;-60
2021/11/22 06:46:52;;;;;;;85.10;20.47;;;5.00;99.70;;;;;;5088800;28;20446;-62
2021/11/22 06:49:20;;;;;;;81.73;17.80;;;5.00;99.70;;;;;;5090027;28;20462;-62
2021/11/22 06:51:47;;;;;;;77.70;16.27;;;5.10;99.70;;;;;;5090009;28;20477;-63
2021/11/22 06:54:14;;;;;;;80.13;17.20;;;5.00;99.70;;;;;;5090582;28;20492;-60
2021/11/22 06:56:41;;;;;;;79.80;17.40;;;5.10;99.70;;;;;;5089292;28;20434;-59
2021/11/22 06:59:08;;;;;;;80.97;17.70;;;5.10;99.70;;;;;;5090765;28;20438;-61
2021/11/22 07:01:36;;;;;;;88.20;19.33;;;5.20;99.70;;;;;;5081634;28;20469;-57
2021/11/22 07:04:03;;;;;;;82.27;19.77;;;5.20;99.70;;;;;;5080504;28;20806;-60
2021/11/22 07:06:29;;;;;;;80.53;18.03;;;5.20;99.70;;;;;;5070611;28;20443;-59
2021/11/22 07:08:56;;;;;;;77.47;17.60;;;5.20;99.70;;;;;;5076575;28;20438;-60
2021/11/22 07:11:23;;;;;;;77.77;17.57;;;5.20;99.70;;;;;;5090848;28;20798;-60
2021/11/22 07:13:50;;;;;;;85.43;18.73;;;5.20;99.70;;;;;;5090978;28;20490;-62
2021/11/22 07:16:17;;;;;;;78.67;17.50;;;5.20;99.70;;;;;;5086988;28;20532;-61
2021/11/22 07:18:45;;;;;;;75.40;17.00;;;5.20;99.70;;;;;;5090824;28;20959;-59
2021/11/22 07:21:12;;;;;;;83.93;18.27;;;5.10;99.70;;;;;;5090541;28;20446;-61
2021/11/22 07:23:38;;;;;;;80.63;18.93;;;5.20;99.70;;;;;;5090754;28;20434;-62
2021/11/22 07:26:05;;;;;;;80.30;17.33;;;5.20;99.70;;;;;;5092495;28;20449;-60
2021/11/22 07:28:32;;;;;;;83.50;17.60;;;5.20;99.70;;;;;;5094413;28;20449;-61
2021/11/22 07:30:59;;;;;;;81.37;18.00;;;5.20;99.70;;;;;;5094535;28;20809;-61
2021/11/22 07:33:26;;;;;;;80.00;18.53;;;5.20;99.70;;;;;;5094049;28;20491;-58
2021/11/22 07:35:54;;;;;;;80.23;20.23;;;5.20;99.70;;;;;;5094247;28;20833;-61
2021/11/22 07:38:21;;;;;;;79.50;18.60;;;5.30;99.70;;;;;;5093968;28;20450;-60
2021/11/22 07:40:48;;;;;;;83.90;17.63;;;5.20;99.70;;;;;;5094150;28;20528;-63
2021/11/22 07:43:15;;;;;;;78.37;17.63;;;5.30;99.70;;;;;;5094199;28;20465;-61
2021/11/22 07:45:42;;;;;;;78.53;16.93;;;5.30;99.70;;;;;;5093753;28;20959;-60
2021/11/22 07:48:09;;;;;;;72.17;15.33;;;5.30;99.70;;;;;;5094378;28;20449;-58
2021/11/22 07:50:36;;;;;;;72.07;15.13;;;5.40;99.70;;;;;;5094023;28;20442;-62
2021/11/22 07:53:05;;;;;;;76.20;16.40;;;5.50;99.70;;;;;;5094267;28;20976;-59
2021/11/22 07:55:31;;;;;;;78.23;15.23;;;5.40;99.70;;;;;;5093415;28;20975;-64
2021/11/22 07:57:58;;;;;;;76.17;15.30;;;5.30;99.70;;;;;;5091615;28;20461;-62
2021/11/22 08:00:27;;;;;;;71.63;15.63;;;5.30;99.70;;;;;;5091854;28;20457;-58
2021/11/22 08:02:54;;;;;;;73.07;16.20;;;5.30;99.70;;;;;;5093507;28;20476;-61
2021/11/22 08:05:23;;;;;;;70.20;15.03;;;5.20;99.70;;;;;;5088096;28;20983;-60
2021/11/22 08:07:53;;;;;;;69.33;14.40;;;5.40;99.70;;;;;;5091088;28;20442;-59
2021/11/22 08:10:28;;;;;;;70.03;14.70;;;5.30;99.70;;;;;;5092700;28;20968;-60
2021/11/22 08:12:57;;;;;;;72.80;14.73;;;5.30;99.70;;;;;;5093385;28;20900;-60
2021/11/22 08:15:25;;;;;;;68.57;14.47;;;5.30;99.70;;;;;;5093407;28;20963;-59
2021/11/22 08:17:52;;;;;;;71.67;15.00;;;5.40;99.70;;;;;;5093651;28;20457;-61
2021/11/22 08:20:21;;;;;;;71.40;14.20;;;5.30;99.70;;;;;;5092404;28;20532;-57
2021/11/22 08:22:48;;;;;;;67.57;13.53;;;5.50;99.70;;;;;;5093166;28;20462;-62
2021/11/22 08:25:18;;;;;;;66.63;14.80;;;5.60;99.70;;;;;;5093179;28;20445;-56
2021/11/22 08:27:46;;;;;;;68.30;14.63;;;5.90;99.70;;;;;;5093206;28;20442;-58
2021/11/22 08:30:15;;;;;;;71.80;16.63;;;5.70;99.70;;;;;;5091625;28;20876;-62
2021/11/22 08:32:44;;;;;;;64.10;13.80;;;5.60;99.70;;;;;;5073067;28;20459;-60
2021/11/22 08:35:11;;;;;;;69.30;15.63;;;5.60;99.70;;;;;;5074525;28;20541;-64
2021/11/22 08:37:39;;;;;;;67.00;16.03;;;5.70;99.70;;;;;;5093521;28;21006;-61
2021/11/22 08:40:09;;;;;;;70.63;15.70;;;5.60;99.70;;;;;;5092761;28;20471;-62
2021/11/22 08:42:36;;;;;;;67.70;14.40;;;5.60;99.70;;;;;;5092973;28;20481;-62
2021/11/22 08:45:05;;;;;;;67.60;14.20;;;5.60;99.70;;;;;;5092133;28;20442;-61
2021/11/22 08:47:32;;;;;;;70.00;15.43;;;5.60;99.70;;;;;;5092903;28;20445;-62
2021/11/22 08:49:59;;;;;;;68.70;14.83;;;5.50;99.70;;;;;;5092972;28;20453;-59
2021/11/22 08:52:26;;;;;;;70.90;16.33;;;5.50;99.70;;;;;;5092406;28;20462;-63
2021/11/22 08:54:54;;;;;;;72.83;16.57;;;5.50;99.70;;;;;;5092477;28;20477;-63
2021/11/22 08:57:21;;;;;;;73.03;18.20;;;5.50;99.70;;;;;;5091628;28;20449;-63
2021/11/22 08:59:49;;;;;;;67.77;14.27;;;5.50;99.70;;;;;;5092525;28;20937;-63
2021/11/22 09:02:21;;;;;;;72.70;15.53;;;5.60;99.70;;;;;;5092285;28;20580;-62
2021/11/22 09:04:48;;;;;;;65.03;13.53;;;5.60;99.70;;;;;;5094302;28;20442;-65
2021/11/22 09:07:14;;;;;;;64.73;13.70;;;5.70;99.70;;;;;;5092281;28;20446;-64
2021/11/22 09:09:41;;;;;;;72.27;16.47;;;5.70;99.70;;;;;;5092575;28;20453;-59
2021/11/22 09:12:08;;;;;;;67.03;13.00;;;5.80;99.70;;;;;;5092805;28;20489;-63
2021/11/22 09:14:35;;;;;;;66.30;15.10;;;5.80;99.70;;;;;;5091668;28;20845;-58
2021/11/22 09:17:02;;;;;;;73.33;16.80;;;5.90;99.70;;;;;;5092483;28;20438;-61
2021/11/22 09:19:31;;;;;;;67.57;13.83;;;5.90;99.70;;;;;;5092064;28;20458;-61
2021/11/22 09:21:58;;;;;;;65.13;14.20;;;6.00;99.70;;;;;;5092311;28;20528;-60
2021/11/22 09:24:25;;;;;;;81.77;23.07;;;5.90;99.70;;;;;;5091709;28;20449;-59
2021/11/22 09:26:51;;;;;;;65.90;14.33;;;5.90;99.70;;;;;;5092210;28;20454;-63
2021/11/22 09:29:18;;;;;;;65.33;14.43;;;5.90;99.70;;;;;;5091920;28;20442;-64
2021/11/22 09:31:45;;;;;;;65.20;13.40;;;5.90;99.70;;;;;;5076140;28;20463;-63
2021/11/22 09:34:12;;;;;;;67.63;14.00;;;5.90;99.70;;;;;;5084114;28;20481;-63
2021/11/22 09:36:40;;;;;;;67.20;13.87;;;5.90;99.70;;;;;;5091917;28;20449;-62
2021/11/22 09:39:07;;;;;;;71.33;16.40;;;5.90;99.70;;;;;;5091755;28;20482;-60
2021/11/22 09:41:34;;;;;;;66.40;14.20;;;6.00;99.70;;;;;;5091870;28;20520;-61
2021/11/22 09:44:01;;;;;;;67.67;14.20;;;6.00;99.70;;;;;;5091032;28;20438;-63
2021/11/22 09:46:28;;;;;;;66.60;16.50;;;6.10;99.70;;;;;;5091610;28;20489;-59
2021/11/22 09:48:54;;;;;;;71.87;18.00;;;6.10;99.70;;;;;;5091105;28;20449;-59
2021/11/22 09:51:21;;;;;;;72.47;16.00;;;6.20;99.70;;;;;;5091706;28;20958;-60
2021/11/22 09:53:49;;;;;;;65.07;14.30;;;6.10;99.70;;;;;;5088426;28;20481;-61
2021/11/22 09:56:17;;;;;;;68.20;15.43;;;6.20;99.70;;;;;;5089155;28;20446;-60
2021/11/22 09:58:43;;;;;;;65.77;13.37;;;6.20;99.70;;;;;;5091380;28;20519;-64
2021/11/22 10:01:14;;;;;;;66.20;15.60;;;6.20;99.70;;;;;;5091529;28;20446;-62
2021/11/22 10:03:41;;;;;;;71.33;17.97;;;6.20;99.70;;;;;;5090511;28;20499;-62
2021/11/22 10:06:08;;;;;;;65.03;13.90;;;6.20;99.70;;;;;;5092706;28;20537;-63
2021/11/22 10:08:39;;;;;;;64.93;14.13;;;6.30;99.70;;;;;;5089840;28;20827;-59
2021/11/22 10:11:09;;;;;;;65.97;13.63;;;6.30;99.70;;;;;;5091505;28;20444;-63
2021/11/22 10:13:38;;;;;;;64.13;15.43;;;6.50;99.70;;;;;;5090787;28;20482;-62
2021/11/22 10:16:24;;;;;;;64.27;13.90;;;6.40;99.70;;;;;;5091012;28;20445;-62
2021/11/22 10:18:54;;;;;;;66.47;12.13;;;6.50;99.70;;;;;;5089840;28;20461;-62
2021/11/22 10:21:22;;;;;;;61.80;11.33;;;6.40;99.70;;;;;;5091218;28;20473;-59
2021/11/22 10:23:51;;;;;;;63.60;12.00;;;6.40;99.70;;;;;;5088739;28;20443;-61
2021/11/22 10:26:19;;;;;;;63.00;11.30;;;6.40;99.70;;;;;;5086159;28;20450;-60
2021/11/22 10:28:49;;;;;;;59.90;11.00;;;6.40;99.70;;;;;;5091571;28;20445;-59
2021/11/22 10:31:21;;;;;;;64.17;11.17;;;6.40;99.70;;;;;;5083598;28;20448;-62
2021/11/22 10:33:50;;;;;;;62.30;11.27;;;6.40;99.70;;;;;;5075314;28;20486;-60
2021/11/22 10:36:19;;;;;;;60.40;11.07;;;6.40;99.70;;;;;;5082642;28;20442;-60
2021/11/22 10:38:49;;;;;;;59.70;9.97;;;6.50;99.70;;;;;;5091273;28;20457;-61
2021/11/22 10:41:20;;;;;;;60.27;10.27;;;6.50;99.70;;;;;;5088328;28;20471;-64
2021/11/22 10:43:52;;;;;;;59.97;10.70;;;6.60;99.70;;;;;;5090884;28;20473;-62
2021/11/22 10:46:24;;;;;;;61.03;10.87;;;6.60;99.70;;;;;;5090272;28;20491;-60
2021/11/22 10:48:52;;;;;;;61.73;12.67;;;6.60;99.70;;;;;;5091182;28;20438;-60
2021/11/22 10:51:23;;;;;;;61.63;11.93;;;6.60;99.70;;;;;;5089043;28;20445;-60
2021/11/22 10:53:51;;;;;;;59.40;11.37;;;6.50;99.70;;;;;;5090621;28;20551;-60
2021/11/22 10:56:22;;;;;;;59.00;9.87;;;6.60;99.70;;;;;;5088760;28;20449;-56
2021/11/22 10:58:55;;;;;;;59.70;10.57;;;6.60;99.70;;;;;;5090834;28;20442;-59
2021/11/22 11:01:32;;;;;;;59.00;10.83;;;6.60;99.70;;;;;;5081326;28;20451;-60
2021/11/22 11:04:02;;;;;;;58.07;11.77;;;6.60;99.70;;;;;;5093646;28;20438;-59
2021/11/22 11:06:38;;;;;;;59.40;11.83;;;6.50;99.70;;;;;;5094316;28;20456;-60
2021/11/22 11:09:07;;;;;;;58.80;10.80;;;6.60;99.70;;;;;;5095167;28;20449;-60
2021/11/22 11:11:36;;;;;;;59.17;10.90;;;6.60;99.70;;;;;;5093967;28;20469;-60
2021/11/22 11:14:09;;;;;;;62.43;12.00;;;6.60;99.70;;;;;;5095135;28;20477;-57
2021/11/22 11:16:37;;;;;;;59.00;10.27;;;6.50;99.70;;;;;;5093928;28;20975;-61
2021/11/22 11:19:06;;;;;;;60.13;10.30;;;6.60;99.70;;;;;;5094998;28;20456;-59
2021/11/22 11:21:36;;;;;;;58.63;9.97;;;6.60;99.70;;;;;;5094063;28;20474;-60
2021/11/22 11:24:05;;;;;;;57.30;10.17;;;6.70;99.70;;;;;;5095077;28;20812;-58
2021/11/22 11:26:33;;;;;;;58.73;9.37;;;6.70;99.70;;;;;;5093932;28;20956;-59
2021/11/22 11:29:02;;;;;;;59.43;9.30;;;6.70;99.70;;;;;;5094800;28;20446;-59
2021/11/22 11:31:29;;;;;;;58.90;10.37;;;6.80;99.70;;;;;;5094260;28;20445;-60
2021/11/22 11:33:56;;;;;;;56.73;10.20;;;6.90;99.70;;;;;;5094163;28;20500;-63
2021/11/22 11:36:46;;;;;;;59.20;9.20;;;6.80;99.70;;;;;;5094050;28;20441;-65
2021/11/22 11:39:31;;;;;;;59.03;10.30;;;6.80;99.70;;;;;;5093439;28;20449;-62
2021/11/22 11:42:09;;;;;;;54.93;8.83;;;6.90;99.70;;;;;;5093435;28;20469;-64
2021/11/22 11:44:51;;;;;;;59.40;11.10;;;6.90;99.70;;;;;;5094055;28;20484;-63
2021/11/22 11:47:31;;;;;;;56.53;10.07;;;7.10;99.70;;;;;;5093940;28;20449;-62
2021/11/22 11:49:58;;;;;;;64.10;9.70;;;7.00;99.70;;;;;;5092048;28;20450;-61
2021/11/22 11:52:26;;;;;;;62.80;10.87;;;6.90;99.70;;;;;;5094140;28;20458;-62
2021/11/22 11:54:53;;;;;;;59.53;11.37;;;6.90;99.70;;;;;;5093700;28;20477;-63
2021/11/22 11:57:23;;;;;;;56.70;9.57;;;6.90;99.70;;;;;;5093868;28;20951;-58
2021/11/22 11:59:51;;;;;;;58.10;9.30;;;6.90;99.70;;;;;;5094135;28;20446;-63
2021/11/22 12:02:28;;;;;;;59.13;10.20;;;6.90;99.70;;;;;;5093824;28;20474;-63
2021/11/22 12:04:59;;;;;;;57.80;9.27;;;6.90;99.70;;;;;;5093571;28;20441;-63
2021/11/22 12:07:32;;;;;;;56.97;9.83;;;7.00;99.70;;;;;;5093827;28;20445;-63
2021/11/22 12:10:12;;;;;;;58.50;13.20;;;6.90;99.70;;;;;;5093525;28;20456;-63
2021/11/22 12:12:41;;;;;;;60.00;10.43;;;6.90;99.70;;;;;;5093365;28;20868;-61
2021/11/22 12:15:16;;;;;;;57.43;10.10;;;6.90;99.70;;;;;;5092631;28;20561;-63
2021/11/22 12:18:03;;;;;;;57.77;10.60;;;6.90;99.70;;;;;;5093451;28;20769;-63
2021/11/22 12:21:04;;;;;;;58.43;11.67;;;6.80;99.70;;;;;;5093798;28;20438;-63
2021/11/22 12:23:45;;;;;;;57.63;9.83;;;6.80;99.70;;;;;;5075290;28;20473;-63
2021/11/22 12:26:15;;;;;;;57.93;10.13;;;6.80;99.70;;;;;;5093490;28;20434;-64
2021/11/22 12:28:52;;;;;;;56.17;9.60;;;6.80;99.70;;;;;;5092855;28;20442;-60
2021/11/22 12:31:33;;;;;;;56.27;11.30;;;6.70;99.70;;;;;;5093234;28;20443;-61
2021/11/22 12:34:06;;;;;;;56.37;10.27;;;6.70;99.70;;;;;;5093164;28;20442;-63
2021/11/22 12:36:45;;;;;;;56.57;11.60;;;6.70;99.70;;;;;;5093115;28;20450;-63
2021/11/22 12:39:16;;;;;;;55.80;9.20;;;6.70;99.70;;;;;;5092238;28;20990;-65
2021/11/22 12:41:44;;;;;;;63.57;16.03;;;6.60;99.70;;;;;;5074499;28;20481;-63
2021/11/22 12:44:13;;;;;;;62.37;12.23;;;6.60;99.70;;;;;;5088243;28;20442;-64
2021/11/22 12:46:46;;;;;;;61.43;10.93;;;6.60;99.70;;;;;;5091971;28;20453;-63
2021/11/22 12:49:29;;;;;;;60.93;11.20;;;6.60;99.70;;;;;;5093351;28;20501;-60
2021/11/22 12:51:56;;;;;;;57.60;10.83;;;6.60;99.70;;;;;;5092997;28;20469;-62
2021/11/22 12:54:24;;;;;;;59.03;10.40;;;6.50;99.70;;;;;;5091848;28;20849;-60
2021/11/22 12:56:51;;;;;;;58.20;10.90;;;6.50;99.70;;;;;;5091028;28;20453;-60
2021/11/22 12:59:22;;;;;;;58.93;8.60;;;6.50;99.70;;;;;;5092199;28;20442;-61
2021/11/22 13:01:53;;;;;;;57.07;9.60;;;6.50;99.70;;;;;;5091763;28;21030;-61
2021/11/22 13:04:41;;;;;;;58.27;9.87;;;6.50;99.70;;;;;;5090990;28;20456;-60
2021/11/22 13:07:46;;;;;;;56.93;10.83;;;6.60;99.70;;;;;;5087810;28;20446;-60
2021/11/22 13:10:36;;;;;;;57.10;10.20;;;6.50;99.70;;;;;;5082092;28;20445;-60
2021/11/22 13:13:11;;;;;;;57.40;13.30;;;6.60;99.70;;;;;;5084030;28;20486;-60
2021/11/22 13:15:55;;;;;;;64.73;14.47;;;6.50;99.70;;;;;;5091334;28;20840;-62
2021/11/22 13:18:24;;;;;;;57.47;12.40;;;6.50;99.70;;;;;;5085490;28;20528;-60
2021/11/22 13:20:51;;;;;;;59.77;10.90;;;6.50;99.70;;;;;;5082840;28;20453;-59
2021/11/22 13:23:20;;;;;;;56.87;12.73;;;6.60;99.70;;;;;;5091667;28;20470;-60
2021/11/22 13:25:48;;;;;;;58.33;12.33;;;6.60;99.70;;;;;;5092209;28;20434;-61
2021/11/22 13:28:17;;;;;;;63.00;11.23;;;6.70;99.70;;;;;;5091907;28;20449;-63
2021/11/22 13:30:44;;;;;;;57.40;10.47;;;6.60;99.70;;;;;;5091612;28;20446;-60
2021/11/22 13:33:11;;;;;;;58.37;11.23;;;6.60;99.70;;;;;;5091985;28;20473;-62
2021/11/22 13:35:39;;;;;;;60.53;11.53;;;6.50;99.70;;;;;;5091708;28;20481;-60
2021/11/22 13:38:09;;;;;;;58.50;13.03;;;6.60;99.70;;;;;;5091771;28;20448;-66
2021/11/22 13:40:36;;;;;;;57.23;13.80;;;6.60;99.70;;;;;;5091541;28;20438;-61
2021/11/22 13:43:04;;;;;;;62.30;16.57;;;6.60;99.70;;;;;;5091766;28;20470;-61
2021/11/22 13:45:31;;;;;;;58.83;13.73;;;6.60;99.70;;;;;;5091366;28;20438;-64
2021/11/22 13:47:58;;;;;;;55.50;10.73;;;6.70;99.70;;;;;;5082990;28;20461;-60
2021/11/22 13:50:25;;;;;;;55.70;12.63;;;6.60;99.70;;;;;;5071818;28;20445;-62
2021/11/22 13:52:53;;;;;;;55.57;13.30;;;6.60;99.70;;;;;;5088455;28;20476;-61
2021/11/22 13:55:20;;;;;;;56.63;11.93;;;6.60;99.70;;;;;;5091646;28;20484;-62
2021/11/22 13:57:47;;;;;;;56.73;12.07;;;6.60;99.70;;;;;;5091093;28;20937;-61
2021/11/22 14:00:16;;;;;;;56.20;13.23;;;6.50;99.70;;;;;;5091725;28;20445;-63
2021/11/22 14:02:44;;;;;;;61.20;14.23;;;6.40;99.70;;;;;;5081395;28;21063;-61
2021/11/22 14:05:13;;;;;;;56.43;9.97;;;6.40;99.70;;;;;;5071301;28;20443;-60
2021/11/22 14:07:47;;;;;;;55.77;10.53;;;6.50;99.70;;;;;;5084959;28;20458;-60
2021/11/22 14:10:15;;;;;;;59.80;10.00;;;6.50;99.70;;;;;;5091733;28;20457;-59
2021/11/22 14:12:42;;;;;;;58.20;8.50;;;6.50;99.70;;;;;;5090813;28;20470;-59
2021/11/22 14:15:19;;;;;;;53.07;8.13;;;6.40;99.70;;;;;;5090424;28;20474;-61
2021/11/22 14:17:48;;;;;;;53.97;8.03;;;6.40;99.70;;;;;;5091182;28;20523;-58
2021/11/22 14:20:17;;;;;;;64.57;11.03;;;6.50;99.70;;;;;;5089130;28;20449;-62
2021/11/22 14:22:45;;;;;;;59.90;9.23;;;6.40;99.70;;;;;;5088924;28;20470;-62
2021/11/22 14:25:21;;;;;;;62.87;10.97;;;6.40;99.70;;;;;;5090014;28;20438;-58
2021/11/22 14:27:48;;;;;;;60.70;9.50;;;6.40;99.70;;;;;;5090920;28;20446;-61
2021/11/22 14:30:16;;;;;;;58.43;9.73;;;6.40;99.70;;;;;;5091428;28;20963;-60
2021/11/22 14:32:45;;;;;;;56.80;9.70;;;6.50;99.70;;;;;;5091585;28;20561;-57
2021/11/22 14:35:14;;;;;;;59.60;9.47;;;6.40;99.70;;;;;;5090873;28;21041;-59
2021/11/22 14:37:41;;;;;;;56.63;9.90;;;6.40;99.70;;;;;;5089559;28;20947;-62
2021/11/22 14:40:10;;;;;;;55.20;9.23;;;6.40;99.70;;;;;;5078739;28;20466;-60
2021/11/22 14:42:38;;;;;;;54.10;8.57;;;6.40;99.70;;;;;;5091129;28;20470;-60
2021/11/22 14:45:07;;;;;;;54.53;9.60;;;6.40;99.70;;;;;;5091143;28;20433;-59
2021/11/22 14:47:36;;;;;;;54.30;7.73;;;6.40;99.70;;;;;;5092010;28;20953;-58
2021/11/22 14:50:25;;;;;;;58.80;8.93;;;6.50;99.70;;;;;;5091141;28;20441;-61
2021/11/22 14:53:07;;;;;;;59.40;9.23;;;6.40;99.70;;;;;;5072715;28;20462;-61
2021/11/22 14:55:34;;;;;;;55.37;8.90;;;6.30;99.70;;;;;;5087380;28;20496;-61
2021/11/22 14:58:03;;;;;;;56.23;8.57;;;6.40;99.70;;;;;;5089329;28;20445;-64
2021/11/22 15:00:35;;;;;;;53.53;8.20;;;6.40;99.70;;;;;;5090679;28;20456;-63
2021/11/22 15:03:25;;;;;;;55.43;8.97;;;6.30;99.70;;;;;;5090504;28;20473;-61
2021/11/22 15:05:53;;;;;;;56.50;8.60;;;6.40;99.70;;;;;;5072042;28;20434;-61
2021/11/22 15:08:20;;;;;;;57.03;8.60;;;6.40;99.70;;;;;;5090967;28;20442;-63
2021/11/22 15:10:51;;;;;;;54.87;8.70;;;6.40;99.70;;;;;;5090737;28;20452;-61
2021/11/22 15:13:19;;;;;;;55.47;7.70;;;6.40;99.70;;;;;;5090476;28;20464;-61
2021/11/22 15:15:46;;;;;;;53.50;8.33;;;6.30;99.70;;;;;;5090336;28;20477;-63
2021/11/22 15:18:13;;;;;;;58.10;9.00;;;6.30;99.70;;;;;;5090705;28;20457;-62
2021/11/22 15:20:40;;;;;;;54.90;7.70;;;6.30;99.70;;;;;;5090660;28;20473;-62
2021/11/22 15:23:06;;;;;;;53.30;9.00;;;6.30;99.70;;;;;;5090566;28;20473;-61
2021/11/22 15:25:33;;;;;;;53.90;8.33;;;6.30;99.70;;;;;;5090057;28;20445;-64
2021/11/22 15:28:03;;;;;;;54.77;8.57;;;6.30;99.70;;;;;;5090867;28;20956;-63
2021/11/22 15:30:32;;;;;;;54.67;7.70;;;6.30;99.70;;;;;;5090605;28;20937;-61
2021/11/22 15:32:59;;;;;;;50.70;7.30;;;6.30;99.70;;;;;;5087667;28;20462;-61
2021/11/22 15:35:27;;;;;;;54.53;7.60;;;6.40;99.70;;;;;;5090523;28;20466;-63
2021/11/22 15:37:54;;;;;;;54.43;8.37;;;6.40;99.70;;;;;;5089980;28;20442;-62
2021/11/22 15:40:22;;;;;;;55.30;8.60;;;6.60;99.70;;;;;;5082647;28;20473;-62
2021/11/22 15:42:50;;;;;;;51.70;7.53;;;6.40;99.70;;;;;;5086827;28;21063;-62
2021/11/22 15:45:17;;;;;;;51.53;7.43;;;6.40;99.70;;;;;;5085026;28;20966;-59
2021/11/22 15:47:46;;;;;;;52.20;7.47;;;6.50;99.70;;;;;;5092694;28;20442;-60
2021/11/22 15:50:16;;;;;;;54.70;7.73;;;6.50;99.70;;;;;;5093558;28;20967;-61
2021/11/22 15:52:43;;;;;;;53.80;7.70;;;6.30;99.70;;;;;;5074682;28;20475;-61
2021/11/22 15:55:13;;;;;;;52.67;7.10;;;6.30;99.70;;;;;;5082316;28;20454;-64
2021/11/22 15:57:40;;;;;;;52.70;7.33;;;6.30;99.70;;;;;;5092370;28;20491;-66
2021/11/22 16:00:10;;;;;;;51.40;7.30;;;6.30;99.70;;;;;;5083702;28;20465;-61
2021/11/22 16:02:37;;;;;;;51.73;6.67;;;6.30;99.70;;;;;;5086263;28;20473;-61
2021/11/22 16:05:06;;;;;;;53.03;8.93;;;6.40;99.70;;;;;;5093147;28;20442;-60
2021/11/22 16:07:33;;;;;;;53.50;7.80;;;6.30;99.70;;;;;;5093814;28;20456;-63
2021/11/22 16:10:00;;;;;;;49.73;6.63;;;6.30;99.70;;;;;;5092001;28;20477;-63
2021/11/22 16:12:27;;;;;;;52.40;7.10;;;6.30;99.70;;;;;;5089692;28;20454;-61
2021/11/22 16:14:55;;;;;;;53.00;7.37;;;6.20;99.70;;;;;;5093047;28;20449;-60
2021/11/22 16:17:22;;;;;;;50.37;6.80;;;6.30;99.70;;;;;;5086397;28;20479;-64
2021/11/22 16:19:49;;;;;;;52.10;7.00;;;6.20;99.70;;;;;;5089219;28;20456;-62
2021/11/22 16:22:17;;;;;;;52.90;7.53;;;6.20;99.70;;;;;;5090556;28;20488;-62
2021/11/22 16:24:43;;;;;;;51.27;6.40;;;6.20;99.70;;;;;;5089405;28;20458;-61
2021/11/22 16:27:13;;;;;;;50.47;6.90;;;6.10;99.70;;;;;;5091111;28;20443;-62
2021/11/22 16:29:42;;;;;;;50.50;6.77;;;6.10;99.70;;;;;;5090805;28;20458;-59
2021/11/22 16:32:10;;;;;;;51.83;7.53;;;6.20;99.70;;;;;;5086888;28;20496;-63
2021/11/22 16:34:37;;;;;;;54.30;8.07;;;6.30;99.70;;;;;;5092598;28;21006;-59
2021/11/22 16:37:04;;;;;;;51.10;6.90;;;6.20;99.70;;;;;;5093171;28;20485;-57
2021/11/22 16:39:32;;;;;;;54.90;9.07;;;6.20;99.70;;;;;;5092771;28;20446;-61
2021/11/22 16:41:59;;;;;;;50.47;6.40;;;6.00;99.70;;;;;;5084094;28;20469;-60
2021/11/22 16:44:27;;;;;;;51.80;8.30;;;6.10;99.70;;;;;;5093072;28;20438;-60
2021/11/22 16:46:57;;;;;;;50.77;7.67;;;6.20;99.70;;;;;;5087948;28;20453;-63
2021/11/22 16:49:24;;;;;;;50.30;6.30;;;6.10;99.70;;;;;;5084303;28;20447;-63
2021/11/22 16:51:53;;;;;;;53.07;6.80;;;6.10;99.70;;;;;;5082459;28;20996;-62
2021/11/22 16:54:21;;;;;;;49.27;6.03;;;6.30;99.70;;;;;;5083576;28;20812;-59
2021/11/22 16:56:49;;;;;;;50.47;6.13;;;6.20;99.70;;;;;;5084037;28;20476;-58
2021/11/22 16:59:18;;;;;;;52.00;6.30;;;6.10;99.70;;;;;;5079854;28;20475;-61
2021/11/22 17:01:45;;;;;;;50.50;6.10;;;6.10;99.70;;;;;;5082338;28;20464;-61
2021/11/22 17:04:14;;;;;;;50.20;6.00;;;6.10;99.70;;;;;;5087288;28;20450;-60
2021/11/22 17:06:42;;;;;;;49.03;5.90;;;6.20;99.70;;;;;;5080927;28;20515;-62
2021/11/22 17:09:10;;;;;;;48.67;5.90;;;6.20;99.70;;;;;;5084217;28;20438;-63
2021/11/22 17:11:37;;;;;;;50.53;6.60;;;6.10;99.70;;;;;;5091844;28;20880;-62
2021/11/22 17:14:07;;;;;;;48.20;5.57;;;6.10;99.70;;;;;;5093027;28;20442;-58
2021/11/22 17:16:34;;;;;;;51.40;5.57;;;6.00;99.70;;;;;;5091974;28;20474;-59
2021/11/22 17:19:08;;;;;;;49.13;5.57;;;6.00;99.70;;;;;;5092333;28;20979;-62
2021/11/22 17:21:35;;;;;;;49.40;6.97;;;6.00;99.70;;;;;;5089219;28;20489;-60
2021/11/22 17:24:02;;;;;;;48.90;5.70;;;6.00;99.70;;;;;;5085890;28;20457;-57
2021/11/22 17:26:29;;;;;;;49.27;5.93;;;6.00;99.70;;;;;;5087648;28;20862;-59
2021/11/22 17:28:55;;;;;;;49.23;6.13;;;6.00;99.70;;;;;;5086326;28;20454;-58
2021/11/22 17:31:24;;;;;;;50.30;6.23;;;6.00;99.70;;;;;;5089500;28;20449;-58
2021/11/22 17:33:50;;;;;;;50.63;6.10;;;5.90;99.70;;;;;;5089875;28;20941;-59
2021/11/22 17:36:18;;;;;;;50.73;6.13;;;6.00;99.70;;;;;;5092302;28;20477;-56
2021/11/22 17:38:45;;;;;;;47.80;5.23;;;6.10;99.70;;;;;;5090503;28;20568;-60
2021/11/22 17:41:12;;;;;;;50.47;6.83;;;6.10;99.70;;;;;;5088052;28;20446;-62
2021/11/22 17:43:39;;;;;;;49.13;5.50;;;6.10;99.70;;;;;;5089501;28;20975;-61
2021/11/22 17:46:05;;;;;;;50.63;6.40;;;6.00;99.70;;;;;;5087051;28;20461;-60
2021/11/22 17:48:34;;;;;;;49.13;6.03;;;6.00;99.70;;;;;;5088334;28;20501;-60
2021/11/22 17:51:01;;;;;;;49.83;6.30;;;6.00;99.70;;;;;;5079815;28;20462;-60